createdAt,value
2019-02-04T00:00:22.569Z,0.80
2019-02-04T00:01:22.724Z,0.80
2019-02-04T00:02:22.579Z,0.83
2019-02-04T00:03:22.418Z,0.82
2019-02-04T00:04:22.561Z,0.82
2019-02-04T00:05:22.634Z,0.79
2019-02-04T00:06:22.449Z,0.83
2019-02-04T00:07:22.422Z,0.85
2019-02-04T00:08:22.610Z,0.83
2019-02-04T00:09:22.602Z,0.83
2019-02-04T00:10:22.353Z,0.83
2019-02-04T00:11:22.368Z,0.90
2019-02-04T00:12:22.295Z,0.80
2019-02-04T00:13:22.509Z,0.82
2019-02-04T00:14:22.429Z,0.86
2019-02-04T00:15:22.367Z,0.78
2019-02-04T00:16:22.411Z,0.82
2019-02-04T00:17:22.418Z,0.78
2019-02-04T00:18:22.533Z,0.76
2019-02-04T00:19:22.350Z,0.78
2019-02-04T00:20:22.204Z,0.85
2019-02-04T00:21:22.336Z,0.78
2019-02-04T00:22:22.224Z,0.76
2019-02-04T00:23:22.284Z,0.78
2019-02-04T00:24:22.946Z,0.76
2019-02-04T00:25:22.187Z,0.64
2019-02-04T00:26:22.321Z,0.62
2019-02-04T00:27:22.340Z,0.53
2019-02-04T00:28:22.151Z,0.49
2019-02-04T00:29:22.248Z,0.53
2019-02-04T00:30:22.183Z,0.57
2019-02-04T00:31:22.112Z,0.53
2019-02-04T00:32:22.167Z,0.42
2019-02-04T00:33:22.109Z,0.49
2019-02-04T00:34:22.233Z,0.38
2019-02-04T00:35:22.070Z,0.38
2019-02-04T00:36:22.170Z,0.38
2019-02-04T00:37:22.220Z,0.34
2019-02-04T00:38:22.104Z,0.36
2019-02-04T00:39:22.233Z,0.36
2019-02-04T00:40:22.044Z,0.46
2019-02-04T00:41:22.086Z,0.39
2019-02-04T00:42:22.019Z,0.38
2019-02-04T00:43:22.047Z,0.36
2019-02-04T00:44:22.109Z,0.34
2019-02-04T00:45:21.992Z,0.33
2019-02-04T00:46:22.022Z,0.41
2019-02-04T00:47:21.990Z,0.34
2019-02-04T00:48:22.005Z,0.39
2019-02-04T00:49:22.032Z,0.39
2019-02-04T00:50:22.288Z,0.31
2019-02-04T00:51:21.886Z,0.27
2019-02-04T00:52:21.987Z,0.27
2019-02-04T00:53:22.007Z,0.24
2019-02-04T00:54:21.996Z,0.21
2019-02-04T00:55:22.207Z,0.20
2019-02-04T00:56:21.948Z,0.10
2019-02-04T00:57:21.803Z,0.10
2019-02-04T00:58:21.841Z,0.09
2019-02-04T00:59:21.753Z,0.10
2019-02-04T01:00:22.140Z,0.05
2019-02-04T01:01:21.859Z,0.05
2019-02-04T01:02:21.730Z,0.07
2019-02-04T01:03:21.726Z,0.00
2019-02-04T01:04:21.775Z,0.02
2019-02-04T01:05:21.861Z,-0.01
2019-02-04T01:06:21.733Z,0.00
2019-02-04T01:07:21.796Z,-0.05
2019-02-04T01:08:21.715Z,0.06
2019-02-04T01:09:21.701Z,-0.01
2019-02-04T01:10:21.896Z,0.12
2019-02-04T01:11:21.743Z,0.07
2019-02-04T01:12:21.654Z,0.09
2019-02-04T01:13:21.698Z,0.12
2019-02-04T01:14:21.745Z,0.10
2019-02-04T01:15:21.716Z,0.15
2019-02-04T01:16:21.940Z,0.12
2019-02-04T01:17:21.659Z,0.13
2019-02-04T01:18:21.667Z,0.10
2019-02-04T01:19:21.648Z,0.05
2019-02-04T01:20:21.686Z,0.12
2019-02-04T01:21:21.671Z,0.07
2019-02-04T01:22:21.620Z,0.06
2019-02-04T01:23:21.718Z,0.09
2019-02-04T01:24:21.562Z,0.10
2019-02-04T01:25:21.571Z,0.05
2019-02-04T01:26:21.566Z,0.12
2019-02-04T01:27:21.639Z,0.06
2019-02-04T01:28:21.746Z,0.16
2019-02-04T01:29:21.567Z,0.12
2019-02-04T01:30:21.558Z,0.07
2019-02-04T01:31:21.640Z,0.13
2019-02-04T01:32:22.260Z,0.09
2019-02-04T01:33:21.494Z,0.07
2019-02-04T01:34:21.656Z,0.12
2019-02-04T01:35:21.648Z,0.02
2019-02-04T01:36:21.509Z,0.03
2019-02-04T01:37:21.448Z,0.07
2019-02-04T01:38:21.442Z,0.06
2019-02-04T01:39:21.503Z,0.02
2019-02-04T01:40:21.432Z,-0.05
2019-02-04T01:41:21.408Z,0.05
2019-02-04T01:42:21.604Z,0.00
2019-02-04T01:43:21.315Z,0.00
2019-02-04T01:44:21.396Z,0.03
2019-02-04T01:45:21.347Z,0.00
2019-02-04T01:46:21.597Z,-0.09
2019-02-04T01:47:21.397Z,0.03
2019-02-04T01:48:21.297Z,-0.04
2019-02-04T01:49:21.420Z,0.05
2019-02-04T01:50:21.467Z,-0.05
2019-02-04T01:51:21.329Z,-0.09
2019-02-04T01:52:22.474Z,-0.11
2019-02-04T01:53:21.297Z,0.03
2019-02-04T01:54:21.244Z,-0.09
2019-02-04T01:55:21.267Z,0.03
2019-02-04T01:56:21.379Z,-0.04
2019-02-04T01:57:21.530Z,-0.06
2019-02-04T01:58:21.641Z,-0.12
2019-02-04T01:59:21.378Z,-0.11
2019-02-04T02:00:21.258Z,0.05
2019-02-04T02:01:21.134Z,-0.11
2019-02-04T02:02:21.345Z,-0.01
2019-02-04T02:03:21.169Z,-0.06
2019-02-04T02:04:21.312Z,0.03
2019-02-04T02:05:21.163Z,0.00
2019-02-04T02:06:21.164Z,0.00
2019-02-04T02:07:21.151Z,0.00
2019-02-04T02:08:21.230Z,0.02
2019-02-04T02:09:21.122Z,-0.04
2019-02-04T02:10:21.246Z,-0.05
2019-02-04T02:11:21.122Z,0.03
2019-02-04T02:12:21.133Z,-0.05
2019-02-04T02:13:22.913Z,-0.01
2019-02-04T02:14:21.114Z,-0.04
2019-02-04T02:15:21.050Z,-0.08
2019-02-04T02:16:21.061Z,-0.05
2019-02-04T02:17:26.616Z,0.00
2019-02-04T02:18:22.143Z,-0.06
2019-02-04T02:19:20.979Z,-0.08
2019-02-04T02:20:21.049Z,-0.05
2019-02-04T02:21:21.192Z,-0.09
2019-02-04T02:22:20.983Z,-0.11
2019-02-04T02:23:21.054Z,-0.09
2019-02-04T02:24:20.970Z,-0.12
2019-02-04T02:25:20.950Z,0.00
2019-02-04T02:26:21.047Z,-0.04
2019-02-04T02:27:20.876Z,0.00
2019-02-04T02:28:20.947Z,-0.08
2019-02-04T02:29:20.895Z,-0.05
2019-02-04T02:30:20.921Z,-0.04
2019-02-04T02:31:21.095Z,-0.04
2019-02-04T02:32:20.878Z,-0.05
2019-02-04T02:33:21.001Z,0.05
2019-02-04T02:34:20.832Z,0.00
2019-02-04T02:35:20.823Z,-0.08
2019-02-04T02:36:20.850Z,-0.13
2019-02-04T02:37:20.808Z,-0.05
2019-02-04T02:38:20.861Z,-0.16
2019-02-04T02:39:20.792Z,-0.15
2019-02-04T02:40:20.747Z,-0.16
2019-02-04T02:41:20.768Z,-0.15
2019-02-04T02:42:20.750Z,-0.15
2019-02-04T02:43:20.926Z,-0.15
2019-02-04T02:44:20.710Z,-0.13
2019-02-04T02:45:20.721Z,-0.09
2019-02-04T02:46:20.816Z,-0.16
2019-02-04T02:47:20.710Z,-0.26
2019-02-04T02:48:20.704Z,-0.30
2019-02-04T02:49:20.902Z,-0.27
2019-02-04T02:50:20.828Z,-0.31
2019-02-04T02:51:20.812Z,-0.24
2019-02-04T02:52:20.777Z,-0.27
2019-02-04T02:53:20.576Z,-0.24
2019-02-04T02:54:20.687Z,-0.27
2019-02-04T02:55:20.693Z,-0.30
2019-02-04T02:56:20.675Z,-0.27
2019-02-04T02:57:20.589Z,-0.23
2019-02-04T02:58:20.622Z,-0.29
2019-02-04T02:59:20.699Z,-0.30
2019-02-04T03:00:20.717Z,-0.27
2019-02-04T03:01:20.590Z,-0.26
2019-02-04T03:02:20.609Z,-0.23
2019-02-04T03:03:20.627Z,-0.30
2019-02-04T03:04:20.678Z,-0.31
2019-02-04T03:05:20.547Z,-0.27
2019-02-04T03:06:20.563Z,-0.27
2019-02-04T03:07:20.452Z,-0.31
2019-02-04T03:08:20.546Z,-0.29
2019-02-04T03:09:20.479Z,-0.36
2019-02-04T03:10:20.548Z,-0.31
2019-02-04T03:11:20.566Z,-0.39
2019-02-04T03:12:20.597Z,-0.45
2019-02-04T03:13:20.517Z,-0.41
2019-02-04T03:14:20.486Z,-0.42
2019-02-04T03:15:20.448Z,-0.37
2019-02-04T03:16:20.564Z,-0.51
2019-02-04T03:17:20.559Z,-0.41
2019-02-04T03:18:20.438Z,-0.44
2019-02-04T03:19:20.376Z,-0.50
2019-02-04T03:20:20.348Z,-0.47
2019-02-04T03:21:20.438Z,-0.50
2019-02-04T03:22:20.394Z,-0.51
2019-02-04T03:23:20.374Z,-0.42
2019-02-04T03:24:20.309Z,-0.42
2019-02-04T03:25:20.404Z,-0.48
2019-02-04T03:26:20.395Z,-0.50
2019-02-04T03:27:20.308Z,-0.51
2019-02-04T03:28:20.254Z,-0.41
2019-02-04T03:29:20.237Z,-0.48
2019-02-04T03:30:20.525Z,-0.45
2019-02-04T03:31:20.263Z,-0.47
2019-02-04T03:32:20.230Z,-0.44
2019-02-04T03:33:20.277Z,-0.48
2019-02-04T03:37:09.632Z,-0.54
2019-02-04T03:38:09.536Z,-0.48
2019-02-04T03:39:09.544Z,-0.50
2019-02-04T03:40:09.599Z,-0.47
2019-02-04T03:41:09.485Z,-0.54
2019-02-04T03:42:09.472Z,-0.51
2019-02-04T03:43:09.451Z,-0.59
2019-02-04T03:44:09.482Z,-0.57
2019-02-04T03:45:09.407Z,-0.66
2019-02-04T03:46:09.465Z,-0.57
2019-02-04T03:47:09.421Z,-0.57
2019-02-04T03:48:09.678Z,-0.70
2019-02-04T03:49:09.375Z,-0.59
2019-02-04T03:50:09.408Z,-0.68
2019-02-04T03:51:09.424Z,-0.65
2019-02-04T03:52:09.339Z,-0.63
2019-02-04T03:53:09.380Z,-0.72
2019-02-04T03:54:09.360Z,-0.68
2019-02-04T03:55:09.330Z,-0.66
2019-02-04T03:56:09.334Z,-0.73
2019-02-04T03:57:09.355Z,-0.72
2019-02-04T03:58:09.332Z,-0.69
2019-02-04T03:59:09.280Z,-0.68
2019-02-04T04:00:09.255Z,-0.68
2019-02-04T04:01:09.364Z,-0.80
2019-02-04T04:02:09.301Z,-0.80
2019-02-04T04:03:09.258Z,-0.81
2019-02-04T04:04:09.300Z,-0.78
2019-02-04T04:05:09.233Z,-0.78
2019-02-04T04:06:09.260Z,-0.75
2019-02-04T04:07:09.240Z,-0.75
2019-02-04T04:08:09.166Z,-0.83
2019-02-04T04:09:09.212Z,-0.86
2019-02-04T04:10:09.189Z,-0.94
2019-02-04T04:11:09.236Z,-0.84
2019-02-04T04:12:09.169Z,-0.81
2019-02-04T04:13:09.185Z,-0.80
2019-02-04T04:14:09.163Z,-0.94
2019-02-04T04:15:09.176Z,-0.91
2019-02-04T04:16:09.097Z,-0.86
2019-02-04T04:17:09.164Z,-0.91
2019-02-04T04:18:15.916Z,-0.95
2019-02-04T04:19:10.070Z,-0.91
2019-02-04T04:20:09.082Z,-0.95
2019-02-04T04:21:09.121Z,-0.80
2019-02-04T04:22:09.110Z,-1.02
2019-02-04T04:23:09.018Z,-0.91
2019-02-04T04:24:09.067Z,-0.87
2019-02-04T04:25:09.049Z,-0.87
2019-02-04T04:26:09.038Z,-0.95
2019-02-04T04:27:09.038Z,-0.87
2019-02-04T04:28:08.973Z,-1.00
2019-02-04T04:29:08.976Z,-0.94
2019-02-04T04:30:08.949Z,-0.97
2019-02-04T04:31:08.947Z,-0.99
2019-02-04T04:32:08.956Z,-0.99
2019-02-04T04:33:09.007Z,-1.03
2019-02-04T04:34:08.930Z,-1.02
2019-02-04T04:35:08.912Z,-1.03
2019-02-04T04:36:08.906Z,-1.09
2019-02-04T04:37:08.935Z,-1.07
2019-02-04T04:38:08.906Z,-1.12
2019-02-04T04:39:08.929Z,-1.09
2019-02-04T04:40:08.847Z,-1.12
2019-02-04T04:41:08.855Z,-1.06
2019-02-04T04:42:08.884Z,-1.06
2019-02-04T04:43:08.820Z,-1.06
2019-02-04T04:44:08.832Z,-1.09
2019-02-04T04:45:08.806Z,-1.07
2019-02-04T04:46:08.863Z,-1.05
2019-02-04T04:47:08.893Z,-1.00
2019-02-04T04:48:08.775Z,-0.97
2019-02-04T04:49:08.761Z,-1.02
2019-02-04T04:50:08.773Z,-0.99
2019-02-04T04:51:08.749Z,-0.97
2019-02-04T04:52:08.725Z,-0.94
2019-02-04T04:53:08.757Z,-1.00
2019-02-04T04:54:08.716Z,-0.95
2019-02-04T04:55:08.736Z,-1.02
2019-02-04T04:56:08.727Z,-1.00
2019-02-04T04:57:08.700Z,-1.02
2019-02-04T04:58:08.694Z,-1.00
2019-02-04T04:59:08.666Z,-1.03
2019-02-04T05:00:08.634Z,-0.92
2019-02-04T05:01:08.644Z,-0.94
2019-02-04T05:02:08.652Z,-0.95
2019-02-04T05:03:08.693Z,-0.92
2019-02-04T05:04:08.711Z,-1.06
2019-02-04T05:05:08.592Z,-0.95
2019-02-04T05:06:08.607Z,-1.05
2019-02-04T05:07:08.625Z,-1.00
2019-02-04T05:08:08.591Z,-0.92
2019-02-04T05:09:08.606Z,-0.97
2019-02-04T05:10:08.529Z,-0.99
2019-02-04T05:11:08.528Z,-0.97
2019-02-04T05:12:08.528Z,-0.99
2019-02-04T05:13:08.562Z,-0.91
2019-02-04T05:14:08.493Z,-1.00
2019-02-04T05:15:08.485Z,-0.94
2019-02-04T05:16:08.483Z,-1.00
2019-02-04T05:17:08.457Z,-0.95
2019-02-04T05:18:08.478Z,-0.94
2019-02-04T05:19:08.456Z,-1.02
2019-02-04T05:20:08.475Z,-1.02
2019-02-04T05:21:08.458Z,-0.99
2019-02-04T05:22:08.425Z,-1.02
2019-02-04T05:23:08.404Z,-0.89
2019-02-04T05:24:08.420Z,-1.02
2019-02-04T05:25:08.383Z,-0.99
2019-02-04T05:26:08.389Z,-0.92
2019-02-04T05:27:08.356Z,-0.99
2019-02-04T05:28:08.365Z,-0.87
2019-02-04T05:29:08.357Z,-0.94
2019-02-04T05:30:08.349Z,-0.94
2019-02-04T05:31:08.318Z,-1.02
2019-02-04T05:32:08.310Z,-0.91
2019-02-04T05:33:08.336Z,-0.99
2019-02-04T05:34:08.355Z,-0.92
2019-02-04T05:35:08.296Z,-0.97
2019-02-04T05:36:08.320Z,-0.97
2019-02-04T05:37:08.260Z,-0.92
2019-02-04T05:38:08.261Z,-0.91
2019-02-04T05:39:08.282Z,-0.84
2019-02-04T05:40:08.226Z,-0.87
2019-02-04T05:41:08.233Z,-0.97
2019-02-04T05:42:08.218Z,-0.83
2019-02-04T05:43:08.243Z,-0.84
2019-02-04T05:44:08.329Z,-0.77
2019-02-04T05:45:08.188Z,-0.89
2019-02-04T05:46:08.182Z,-0.87
2019-02-04T05:47:08.197Z,-0.91
2019-02-04T05:48:08.162Z,-0.87
2019-02-04T05:49:08.238Z,-0.80
2019-02-04T05:50:08.149Z,-0.89
2019-02-04T05:51:08.119Z,-0.84
2019-02-04T05:52:08.120Z,-0.83
2019-02-04T05:53:08.108Z,-0.83
2019-02-04T05:54:08.076Z,-0.94
2019-02-04T05:55:08.138Z,-0.92
2019-02-04T05:56:08.065Z,-0.89
2019-02-04T05:57:08.068Z,-0.80
2019-02-04T05:58:08.051Z,-0.78
2019-02-04T05:59:08.045Z,-0.80
2019-02-04T06:00:08.053Z,-0.87
2019-02-04T06:01:08.015Z,-0.81
2019-02-04T06:02:09.511Z,-0.80
2019-02-04T06:03:08.024Z,-0.86
2019-02-04T06:04:07.981Z,-0.94
2019-02-04T06:05:08.113Z,-0.84
2019-02-04T06:06:08.020Z,-0.91
2019-02-04T06:07:07.961Z,-0.83
2019-02-04T06:08:07.994Z,-0.80
2019-02-04T06:09:07.987Z,-0.83
2019-02-04T06:10:07.946Z,-0.94
2019-02-04T06:11:07.926Z,-0.89
2019-02-04T06:12:07.925Z,-0.86
2019-02-04T06:13:07.902Z,-0.94
2019-02-04T06:14:07.902Z,-0.89
2019-02-04T06:15:07.942Z,-0.81
2019-02-04T06:16:07.861Z,-0.78
2019-02-04T06:17:07.925Z,-0.84
2019-02-04T06:18:07.834Z,-0.80
2019-02-04T06:19:07.829Z,-0.80
2019-02-04T06:20:07.837Z,-0.91
2019-02-04T06:21:07.845Z,-0.83
2019-02-04T06:22:07.818Z,-0.77
2019-02-04T06:23:07.787Z,-0.84
2019-02-04T06:24:07.853Z,-0.81
2019-02-04T06:25:07.813Z,-0.81
2019-02-04T06:26:07.809Z,-0.84
2019-02-04T06:27:10.234Z,-0.80
2019-02-04T06:28:07.734Z,-0.81
2019-02-04T06:29:07.728Z,-0.83
2019-02-04T06:30:07.740Z,-0.89
2019-02-04T06:31:07.736Z,-0.81
2019-02-04T06:32:07.703Z,-0.81
2019-02-04T06:33:07.683Z,-0.80
2019-02-04T06:34:07.694Z,-0.89
2019-02-04T06:35:07.660Z,-0.81
2019-02-04T06:36:07.677Z,-0.80
2019-02-04T06:37:07.646Z,-0.78
2019-02-04T06:38:07.638Z,-0.81
2019-02-04T06:39:07.617Z,-0.80
2019-02-04T06:40:07.613Z,-0.81
2019-02-04T06:41:07.619Z,-0.83
2019-02-04T06:42:07.590Z,-0.83
2019-02-04T06:43:07.574Z,-0.83
2019-02-04T06:44:07.570Z,-0.77
2019-02-04T06:45:07.555Z,-0.83
2019-02-04T06:46:07.568Z,-0.86
2019-02-04T06:47:07.537Z,-0.86
2019-02-04T06:48:07.538Z,-0.72
2019-02-04T06:49:12.560Z,-0.78
2019-02-04T06:50:08.519Z,-0.80
2019-02-04T06:51:07.513Z,-0.75
2019-02-04T06:52:07.491Z,-0.80
2019-02-04T06:53:07.543Z,-0.84
2019-02-04T06:54:07.463Z,-0.78
2019-02-04T06:55:07.461Z,-0.80
2019-02-04T06:56:07.488Z,-0.75
2019-02-04T06:57:07.450Z,-0.87
2019-02-04T06:58:07.426Z,-0.72
2019-02-04T06:59:07.417Z,-0.81
2019-02-04T07:00:07.398Z,-0.80
2019-02-04T07:01:07.420Z,-0.81
2019-02-04T07:02:07.404Z,-0.78
2019-02-04T07:03:07.379Z,-0.77
2019-02-04T07:04:07.364Z,-0.69
2019-02-04T07:05:07.372Z,-0.75
2019-02-04T07:06:07.345Z,-0.83
2019-02-04T07:07:07.350Z,-0.80
2019-02-04T07:08:07.337Z,-0.69
2019-02-04T07:09:07.310Z,-0.80
2019-02-04T07:10:07.305Z,-0.70
2019-02-04T07:11:07.295Z,-0.81
2019-02-04T07:12:07.337Z,-0.68
2019-02-04T07:13:07.273Z,-0.80
2019-02-04T07:14:07.258Z,-0.83
2019-02-04T07:15:07.270Z,-0.68
2019-02-04T07:16:07.243Z,-0.65
2019-02-04T07:17:07.289Z,-0.77
2019-02-04T07:18:07.225Z,-0.62
2019-02-04T07:19:07.220Z,-0.72
2019-02-04T07:20:07.208Z,-0.72
2019-02-04T07:21:07.195Z,-0.70
2019-02-04T07:22:07.198Z,-0.65
2019-02-04T07:23:07.170Z,-0.68
2019-02-04T07:24:07.162Z,-0.68
2019-02-04T07:25:07.214Z,-0.70
2019-02-04T07:26:07.137Z,-0.65
2019-02-04T07:27:07.167Z,-0.63
2019-02-04T07:28:07.175Z,-0.59
2019-02-04T07:29:07.127Z,-0.68
2019-02-04T07:30:07.098Z,-0.63
2019-02-04T07:31:07.089Z,-0.68
2019-02-04T07:32:07.087Z,-0.59
2019-02-04T07:33:07.104Z,-0.63
2019-02-04T07:34:07.046Z,-0.52
2019-02-04T07:35:07.045Z,-0.60
2019-02-04T07:36:07.055Z,-0.51
2019-02-04T07:37:07.045Z,-0.57
2019-02-04T07:38:07.031Z,-0.54
2019-02-04T07:39:07.010Z,-0.52
2019-02-04T07:40:07.000Z,-0.50
2019-02-04T07:41:07.002Z,-0.48
2019-02-04T07:42:06.996Z,-0.50
2019-02-04T07:43:06.986Z,-0.55
2019-02-04T07:44:06.951Z,-0.47
2019-02-04T07:45:06.945Z,-0.50
2019-02-04T07:46:06.938Z,-0.50
2019-02-04T07:47:06.920Z,-0.47
2019-02-04T07:48:06.936Z,-0.48
2019-02-04T07:49:06.918Z,-0.50
2019-02-04T07:50:06.893Z,-0.42
2019-02-04T07:51:06.883Z,-0.41
2019-02-04T07:52:06.867Z,-0.47
2019-02-04T07:53:06.890Z,-0.48
2019-02-04T07:54:06.848Z,-0.41
2019-02-04T07:55:06.918Z,-0.45
2019-02-04T07:56:06.852Z,-0.48
2019-02-04T07:57:06.847Z,-0.44
2019-02-04T07:58:06.836Z,-0.51
2019-02-04T07:59:06.796Z,-0.42
2019-02-04T08:00:06.788Z,-0.45
2019-02-04T08:01:14.402Z,-0.45
2019-02-04T08:02:06.817Z,-0.33
2019-02-04T08:03:06.776Z,-0.31
2019-02-04T08:04:06.779Z,-0.31
2019-02-04T08:05:06.735Z,-0.31
2019-02-04T08:06:06.775Z,-0.30
2019-02-04T08:07:06.731Z,-0.26
2019-02-04T08:08:06.747Z,-0.29
2019-02-04T08:09:06.740Z,-0.29
2019-02-04T08:10:06.703Z,-0.27
2019-02-04T08:11:06.682Z,-0.29
2019-02-04T08:12:06.668Z,-0.24
2019-02-04T08:13:06.690Z,-0.27
2019-02-04T08:14:06.695Z,-0.23
2019-02-04T08:15:06.652Z,-0.24
2019-02-04T08:16:06.698Z,-0.18
2019-02-04T08:17:06.610Z,-0.22
2019-02-04T08:18:06.610Z,-0.15
2019-02-04T08:19:06.602Z,-0.18
2019-02-04T08:20:06.611Z,-0.15
2019-02-04T08:21:06.573Z,-0.16
2019-02-04T08:22:06.575Z,-0.18
2019-02-04T08:23:06.551Z,-0.13
2019-02-04T08:24:06.548Z,-0.12
2019-02-04T08:25:06.560Z,-0.04
2019-02-04T08:26:06.529Z,-0.06
2019-02-04T08:27:06.518Z,-0.01
2019-02-04T08:28:06.527Z,-0.05
2019-02-04T08:29:06.496Z,0.00
2019-02-04T08:30:06.517Z,-0.11
2019-02-04T08:31:06.477Z,0.05
2019-02-04T08:32:06.469Z,0.07
2019-02-04T08:33:06.452Z,0.05
2019-02-04T08:34:06.446Z,0.02
2019-02-04T08:35:06.450Z,0.00
2019-02-04T08:36:06.419Z,0.03
2019-02-04T08:37:06.410Z,0.06
2019-02-04T08:38:06.412Z,0.07
2019-02-04T08:39:06.393Z,0.12
2019-02-04T08:40:06.378Z,0.05
2019-02-04T08:41:06.396Z,0.09
2019-02-04T08:42:06.378Z,0.20
2019-02-04T08:43:06.348Z,0.21
2019-02-04T08:44:06.342Z,0.21
2019-02-04T08:45:06.328Z,0.21
2019-02-04T08:46:06.340Z,0.25
2019-02-04T08:47:06.306Z,0.25
2019-02-04T08:48:06.298Z,0.24
2019-02-04T08:49:06.286Z,0.31
2019-02-04T08:50:06.282Z,0.28
2019-02-04T08:51:06.286Z,0.23
2019-02-04T08:52:06.310Z,0.27
2019-02-04T08:53:06.249Z,0.28
2019-02-04T08:54:06.235Z,0.20
2019-02-04T08:55:06.225Z,0.31
2019-02-04T08:56:06.236Z,0.33
2019-02-04T08:57:06.249Z,0.38
2019-02-04T08:58:06.229Z,0.39
2019-02-04T08:59:06.192Z,0.43
2019-02-04T09:00:06.184Z,0.30
2019-02-04T09:01:06.189Z,0.39
2019-02-04T09:02:06.182Z,0.39
2019-02-04T09:03:06.144Z,0.48
2019-02-04T09:04:06.263Z,0.48
2019-02-04T09:05:06.123Z,0.45
2019-02-04T09:06:06.149Z,0.52
2019-02-04T09:07:06.125Z,0.45
2019-02-04T09:08:06.111Z,0.48
2019-02-04T09:09:06.080Z,0.51
2019-02-04T09:10:06.086Z,0.52
2019-02-04T09:11:06.089Z,0.51
2019-02-04T09:12:06.068Z,0.48
2019-02-04T09:13:06.054Z,0.51
2019-02-04T09:14:06.056Z,0.49
2019-02-04T09:15:06.051Z,0.51
2019-02-04T09:16:06.033Z,0.52
2019-02-04T09:17:06.036Z,0.57
2019-02-04T09:18:06.004Z,0.53
2019-02-04T09:19:05.997Z,0.62
2019-02-04T09:20:10.104Z,0.67
2019-02-04T09:21:05.961Z,0.64
2019-02-04T09:22:05.980Z,0.64
2019-02-04T09:23:06.631Z,0.64
2019-02-04T09:24:05.934Z,0.65
2019-02-04T09:25:05.926Z,0.67
2019-02-04T09:26:05.914Z,0.71
2019-02-04T09:27:05.982Z,0.75
2019-02-04T09:28:05.895Z,0.76
2019-02-04T09:29:05.973Z,0.80
2019-02-04T09:30:05.878Z,0.68
2019-02-04T09:31:05.872Z,0.75
2019-02-04T09:32:05.842Z,0.86
2019-02-04T09:33:05.898Z,0.82
2019-02-04T09:34:05.835Z,0.82
2019-02-04T09:35:05.816Z,0.82
2019-02-04T09:36:05.847Z,0.85
2019-02-04T09:37:05.819Z,0.86
2019-02-04T09:38:05.829Z,0.90
2019-02-04T09:39:05.777Z,0.94
2019-02-04T09:40:05.816Z,0.98
2019-02-04T09:41:05.772Z,0.90
2019-02-04T09:42:05.792Z,0.97
2019-02-04T09:43:05.785Z,1.00
2019-02-04T09:44:05.760Z,0.96
2019-02-04T09:45:05.726Z,0.89
2019-02-04T09:46:05.722Z,0.89
2019-02-04T09:47:05.693Z,0.98
2019-02-04T09:48:05.700Z,1.06
2019-02-04T09:49:05.703Z,1.07
2019-02-04T09:50:05.733Z,1.07
2019-02-04T09:51:05.660Z,1.08
2019-02-04T09:52:05.674Z,1.15
2019-02-04T09:53:05.682Z,1.06
2019-02-04T09:54:05.677Z,1.15
2019-02-04T09:55:05.612Z,1.12
2019-02-04T09:56:05.654Z,1.18
2019-02-04T09:57:05.599Z,1.15
2019-02-04T09:58:05.625Z,1.19
2019-02-04T09:59:05.597Z,1.22
2019-02-04T10:00:05.573Z,1.25
2019-02-04T10:01:05.551Z,1.24
2019-02-04T10:02:05.558Z,1.25
2019-02-04T10:03:05.564Z,1.37
2019-02-04T10:04:05.605Z,1.36
2019-02-04T10:05:05.538Z,1.42
2019-02-04T10:06:05.515Z,1.40
2019-02-04T10:07:05.552Z,1.43
2019-02-04T10:08:05.568Z,1.39
2019-02-04T10:09:05.538Z,1.51
2019-02-04T10:10:05.511Z,1.52
2019-02-04T10:11:05.446Z,1.46
2019-02-04T10:12:05.448Z,1.55
2019-02-04T10:13:05.466Z,1.55
2019-02-04T10:14:05.441Z,1.52
2019-02-04T10:15:05.441Z,1.58
2019-02-04T10:16:05.485Z,1.58
2019-02-04T10:17:05.432Z,1.62
2019-02-04T10:18:05.479Z,1.65
2019-02-04T10:19:05.445Z,1.65
2019-02-04T10:20:05.350Z,1.68
2019-02-04T10:21:05.376Z,1.69
2019-02-04T10:22:05.329Z,1.80
2019-02-04T10:23:05.359Z,1.76
2019-02-04T10:24:05.349Z,1.82
2019-02-04T10:25:05.313Z,1.80
2019-02-04T10:26:05.310Z,1.85
2019-02-04T10:27:05.314Z,1.89
2019-02-04T10:28:05.272Z,1.85
2019-02-04T10:29:05.282Z,1.90
2019-02-04T10:30:05.285Z,1.93
2019-02-04T10:31:05.267Z,1.93
2019-02-04T10:32:05.249Z,1.94
2019-02-04T10:33:05.226Z,1.97
2019-02-04T10:34:05.202Z,2.08
2019-02-04T10:35:16.374Z,1.98
2019-02-04T10:36:06.183Z,2.08
2019-02-04T10:37:05.216Z,2.16
2019-02-04T10:38:05.171Z,2.16
2019-02-04T10:39:05.187Z,2.27
2019-02-04T10:40:05.159Z,2.35
2019-02-04T10:41:05.223Z,2.35
2019-02-04T10:42:05.125Z,2.37
2019-02-04T10:43:05.151Z,2.40
2019-02-04T10:44:05.236Z,2.48
2019-02-04T10:45:05.148Z,2.49
2019-02-04T10:46:05.302Z,2.51
2019-02-04T10:47:05.073Z,2.59
2019-02-04T10:48:05.147Z,2.61
2019-02-04T10:49:05.054Z,2.73
2019-02-04T10:50:05.040Z,2.70
2019-02-04T10:51:05.051Z,2.76
2019-02-04T10:52:05.013Z,2.79
2019-02-04T10:53:05.003Z,2.77
2019-02-04T10:54:05.049Z,2.77
2019-02-04T10:55:05.131Z,2.82
2019-02-04T10:56:05.018Z,2.94
2019-02-04T10:57:04.966Z,2.85
2019-02-04T10:58:04.997Z,2.92
2019-02-04T10:59:04.944Z,2.92
2019-02-04T11:00:04.950Z,3.02
2019-02-04T11:01:04.972Z,3.00
2019-02-04T11:02:04.930Z,3.00
2019-02-04T11:03:04.959Z,3.07
2019-02-04T11:04:04.914Z,3.09
2019-02-04T11:05:04.959Z,3.20
2019-02-04T11:06:04.949Z,3.13
2019-02-04T11:07:04.940Z,3.24
2019-02-04T11:08:04.947Z,3.16
2019-02-04T11:09:04.863Z,3.24
2019-02-04T11:10:04.841Z,3.27
2019-02-04T11:11:04.851Z,3.24
2019-02-04T11:12:05.865Z,3.21
2019-02-04T11:13:04.953Z,3.39
2019-02-04T11:14:04.804Z,3.40
2019-02-04T11:15:04.834Z,3.34
2019-02-04T11:16:04.867Z,3.46
2019-02-04T11:17:04.938Z,3.50
2019-02-04T11:18:04.742Z,3.50
2019-02-04T11:19:04.977Z,3.61
2019-02-04T11:20:04.735Z,3.50
2019-02-04T11:21:04.719Z,3.58
2019-02-04T11:22:04.754Z,3.54
2019-02-04T11:23:14.582Z,3.53
2019-02-04T11:24:05.615Z,3.53
2019-02-04T11:25:04.888Z,3.52
2019-02-04T11:26:04.698Z,3.60
2019-02-04T11:27:04.872Z,3.67
2019-02-04T11:28:04.829Z,3.62
2019-02-04T11:29:04.661Z,3.65
2019-02-04T11:30:04.682Z,3.70
2019-02-04T11:31:04.725Z,3.65
2019-02-04T11:32:04.674Z,3.71
2019-02-04T11:33:04.623Z,3.71
2019-02-04T11:34:04.630Z,3.71
2019-02-04T11:35:04.652Z,3.70
2019-02-04T11:36:04.575Z,3.75
2019-02-04T11:37:04.598Z,3.79
2019-02-04T11:38:04.594Z,3.79
2019-02-04T11:39:04.559Z,3.83
2019-02-04T11:40:04.560Z,3.83
2019-02-04T11:41:04.588Z,3.83
2019-02-04T11:42:04.599Z,3.82
2019-02-04T11:43:04.556Z,3.89
2019-02-04T11:44:04.559Z,4.01
2019-02-04T11:45:04.532Z,4.01
2019-02-04T11:46:04.518Z,4.08
2019-02-04T11:47:04.489Z,4.14
2019-02-04T11:48:04.459Z,4.25
2019-02-04T11:49:04.464Z,4.24
2019-02-04T11:50:04.448Z,4.22
2019-02-04T11:51:09.806Z,4.36
2019-02-04T11:52:05.423Z,4.32
2019-02-04T11:53:04.467Z,4.44
2019-02-04T11:54:04.466Z,4.44
2019-02-04T11:55:04.403Z,4.55
2019-02-04T11:56:04.387Z,4.47
2019-02-04T11:57:04.367Z,4.54
2019-02-04T11:58:07.586Z,4.55
2019-02-04T11:59:04.382Z,4.57
2019-02-04T12:00:04.354Z,4.64
2019-02-04T12:01:04.328Z,4.64
2019-02-04T12:02:04.329Z,4.72
2019-02-04T12:03:04.310Z,4.77
2019-02-04T12:04:04.331Z,4.86
2019-02-04T12:05:04.323Z,4.84
2019-02-04T12:06:04.269Z,4.94
2019-02-04T12:07:04.295Z,4.86
2019-02-04T12:08:04.263Z,4.94
2019-02-04T12:09:04.559Z,4.89
2019-02-04T12:10:04.279Z,4.88
2019-02-04T12:11:04.225Z,5.01
2019-02-04T12:12:04.225Z,4.95
2019-02-04T12:13:04.209Z,5.07
2019-02-04T12:14:04.225Z,5.12
2019-02-04T12:15:04.203Z,5.04
2019-02-04T12:16:04.174Z,5.12
2019-02-04T12:17:04.160Z,5.17
2019-02-04T12:18:04.156Z,5.19
2019-02-04T12:19:04.253Z,5.27
2019-02-04T12:20:04.142Z,5.28
2019-02-04T12:21:04.155Z,5.32
2019-02-04T12:22:04.130Z,5.34
2019-02-04T12:23:04.111Z,5.34
2019-02-04T12:24:04.112Z,5.34
2019-02-04T12:25:04.074Z,5.38
2019-02-04T12:26:04.064Z,5.38
2019-02-04T12:27:04.087Z,5.37
2019-02-04T12:28:04.036Z,5.35
2019-02-04T12:29:04.071Z,5.41
2019-02-04T12:30:04.050Z,5.34
2019-02-04T12:31:04.033Z,5.38
2019-02-04T12:32:04.004Z,5.38
2019-02-04T12:33:04.002Z,5.34
2019-02-04T12:34:04.026Z,5.28
2019-02-04T12:35:03.997Z,5.27
2019-02-04T12:36:04.020Z,5.34
2019-02-04T12:37:04.027Z,5.30
2019-02-04T12:38:03.958Z,5.30
2019-02-04T12:39:03.974Z,5.31
2019-02-04T12:40:03.958Z,5.25
2019-02-04T12:41:03.918Z,5.22
2019-02-04T12:42:04.000Z,5.28
2019-02-04T12:43:03.888Z,5.22
2019-02-04T12:44:03.878Z,5.19
2019-02-04T12:45:03.913Z,5.23
2019-02-04T12:46:03.865Z,5.30
2019-02-04T12:47:03.865Z,5.30
2019-02-04T12:48:03.894Z,5.32
2019-02-04T12:49:03.867Z,5.32
2019-02-04T12:50:03.850Z,5.37
2019-02-04T12:51:03.880Z,5.43
2019-02-04T12:52:03.829Z,5.50
2019-02-04T12:53:03.790Z,5.55
2019-02-04T12:54:03.792Z,5.50
2019-02-04T12:55:03.816Z,5.50
2019-02-04T12:56:03.792Z,5.48
2019-02-04T12:57:03.798Z,5.46
2019-02-04T12:58:03.740Z,5.46
2019-02-04T12:59:03.726Z,5.48
2019-02-04T13:00:03.773Z,5.46
2019-02-04T13:01:03.747Z,5.46
2019-02-04T13:02:03.697Z,5.43
2019-02-04T13:03:03.690Z,5.41
2019-02-04T13:04:03.671Z,5.40
2019-02-04T13:05:03.682Z,5.46
2019-02-04T13:06:03.680Z,5.43
2019-02-04T13:07:03.643Z,5.41
2019-02-04T13:08:03.639Z,5.46